Time;durP1;ratioP1;P1;durP2;ratioP2;P2;SDS_P1;SDS_P2;PMS_P1;PMS_P2;Temp;Humidity;BMP_temperature;BMP_pressure;BME280_temperature;BME280_humidity;BME280_pressure;Samples;Min_cycle;Max_cycle;Signal;HPM_P1;HPM_P2
2020/12/26 00:00:19;;;;;;;15.95;6.38;;;2.80;92.10;;;;;;5078002;28;20040;-81
2020/12/26 00:02:46;;;;;;;11.27;6.32;;;2.80;92.10;;;;;;5096574;28;20020;-81
2020/12/26 00:05:12;;;;;;;12.27;6.32;;;2.70;92.00;;;;;;5077978;28;20048;-81
2020/12/26 00:07:37;;;;;;;9.77;5.25;;;2.70;92.00;;;;;;5061274;28;20107;-80
2020/12/26 00:10:04;;;;;;;18.23;5.93;;;2.70;92.00;;;;;;5077867;28;20190;-81
2020/12/26 00:12:29;;;;;;;8.25;4.60;;;2.60;92.00;;;;;;5077924;28;20031;-80
2020/12/26 00:14:55;;;;;;;10.60;5.05;;;2.60;92.00;;;;;;5078017;28;20032;-80
2020/12/26 00:17:21;;;;;;;7.85;5.00;;;2.60;92.00;;;;;;5078133;28;20373;-80
2020/12/26 00:19:46;;;;;;;9.13;4.78;;;2.60;91.90;;;;;;5077526;28;20437;-80
2020/12/26 00:22:12;;;;;;;11.02;5.10;;;2.60;91.90;;;;;;5077752;28;20479;-80
2020/12/26 00:24:38;;;;;;;11.70;4.80;;;2.50;91.80;;;;;;5077778;28;20047;-80
2020/12/26 00:27:04;;;;;;;10.05;5.20;;;2.50;91.90;;;;;;5059984;28;20056;-80
2020/12/26 00:29:29;;;;;;;7.32;4.50;;;2.50;91.90;;;;;;5095296;28;20081;-80
2020/12/26 00:31:55;;;;;;;10.55;4.93;;;2.50;91.90;;;;;;5077499;28;20032;-79
2020/12/26 00:34:21;;;;;;;12.45;6.32;;;2.50;91.90;;;;;;5040894;28;20504;-80
2020/12/26 00:36:47;;;;;;;12.10;5.40;;;2.40;91.90;;;;;;5096519;28;20021;-78
2020/12/26 00:39:13;;;;;;;8.50;4.90;;;2.40;91.90;;;;;;5104096;28;20625;-79
2020/12/26 00:41:38;;;;;;;11.43;5.03;;;2.40;92.00;;;;;;5094658;28;20035;-79
2020/12/26 00:44:04;;;;;;;16.92;5.22;;;2.40;92.00;;;;;;5094217;28;20140;-79
2020/12/26 00:46:30;;;;;;;11.68;5.28;;;2.40;92.00;;;;;;5076136;28;20024;-79
2020/12/26 00:48:55;;;;;;;11.93;6.22;;;2.40;92.10;;;;;;5075894;28;20036;-78
2020/12/26 00:51:21;;;;;;;16.35;5.93;;;2.50;92.20;;;;;;5094101;28;20039;-79
2020/12/26 00:53:46;;;;;;;10.55;5.15;;;2.50;92.20;;;;;;5075995;28;20115;-79
2020/12/26 00:56:12;;;;;;;13.43;6.10;;;2.50;92.10;;;;;;5075892;28;20028;-79
2020/12/26 00:58:38;;;;;;;14.10;7.30;;;2.60;92.10;;;;;;5076320;28;20469;-79
2020/12/26 01:01:04;;;;;;;14.50;6.30;;;2.70;92.10;;;;;;5075997;28;20490;-78
2020/12/26 01:03:29;;;;;;;13.32;5.97;;;2.70;92.10;;;;;;5076021;28;20515;-78
2020/12/26 01:05:55;;;;;;;15.38;7.25;;;2.70;92.10;;;;;;5076117;28;20032;-79
2020/12/26 01:08:21;;;;;;;15.48;5.97;;;2.80;92.10;;;;;;5076254;28;20043;-80
2020/12/26 01:10:46;;;;;;;25.60;8.20;;;2.80;92.10;;;;;;5075805;28;20031;-80
2020/12/26 01:13:12;;;;;;;14.60;7.50;;;2.80;92.10;;;;;;5093989;28;20024;-80
2020/12/26 01:15:38;;;;;;;14.02;7.45;;;2.90;92.20;;;;;;5075551;28;20085;-80
2020/12/26 01:18:03;;;;;;;8.25;5.88;;;2.90;92.30;;;;;;5055963;28;20035;-80
2020/12/26 01:20:29;;;;;;;12.43;6.60;;;2.90;92.20;;;;;;5074957;28;20480;-80
2020/12/26 01:22:55;;;;;;;15.57;6.50;;;2.90;92.20;;;;;;5056763;28;20067;-80
2020/12/26 01:25:21;;;;;;;17.13;7.78;;;3.00;92.20;;;;;;5062883;28;20723;-80
2020/12/26 01:27:46;;;;;;;15.07;7.93;;;3.00;92.20;;;;;;5108370;27;20187;-80
2020/12/26 01:30:12;;;;;;;17.35;8.07;;;3.00;92.50;;;;;;5080954;28;20081;-80
2020/12/26 01:32:38;;;;;;;16.70;8.90;;;3.00;92.20;;;;;;5076480;28;20056;-80
2020/12/26 01:35:04;;;;;;;16.50;9.00;;;3.00;92.30;;;;;;5093832;28;20035;-80
2020/12/26 01:37:29;;;;;;;19.77;8.90;;;3.10;92.30;;;;;;5093308;28;20028;-80
2020/12/26 01:39:55;;;;;;;22.45;9.65;;;3.10;92.30;;;;;;5058243;28;20036;-81
2020/12/26 01:42:21;;;;;;;16.75;8.70;;;3.20;92.30;;;;;;5074369;28;20020;-80
2020/12/26 01:44:46;;;;;;;18.05;8.38;;;3.20;92.30;;;;;;5074697;28;20548;-80
2020/12/26 01:47:14;;;;;;;17.45;8.40;;;3.20;92.20;;;;;;5074723;28;20095;-81
2020/12/26 01:49:40;;;;;;;17.08;8.55;;;3.30;92.50;;;;;;5096687;28;20027;-80
2020/12/26 01:52:08;;;;;;;20.80;8.73;;;3.30;92.20;;;;;;5055140;28;20025;-81
2020/12/26 01:54:34;;;;;;;15.95;8.10;;;3.30;92.20;;;;;;5099146;28;20029;-81
2020/12/26 01:57:00;;;;;;;14.98;7.45;;;3.30;92.20;;;;;;5074967;28;20074;-81
2020/12/26 01:59:26;;;;;;;15.05;8.55;;;3.30;92.20;;;;;;5074573;28;20503;-81
2020/12/26 02:01:51;;;;;;;12.18;7.53;;;3.40;92.20;;;;;;5057674;28;20119;-80
2020/12/26 02:04:17;;;;;;;15.20;7.95;;;3.40;92.20;;;;;;5074515;28;20028;-80
2020/12/26 02:06:46;;;;;;;13.70;7.82;;;3.40;92.10;;;;;;5074261;28;20376;-80
2020/12/26 02:09:13;;;;;;;13.15;7.18;;;3.50;92.10;;;;;;5092366;28;20051;-81
2020/12/26 02:11:39;;;;;;;12.63;7.55;;;3.50;92.10;;;;;;5073294;28;20115;-81
2020/12/26 02:14:05;;;;;;;16.48;8.70;;;3.50;92.10;;;;;;5074649;28;20024;-81
2020/12/26 02:16:51;;;;;;;13.73;7.35;;;3.50;92.00;;;;;;5074802;28;20032;-81
2020/12/26 02:19:22;;;;;;;13.75;8.10;;;3.50;92.00;;;;;;5071793;28;20491;-81
2020/12/26 02:21:48;;;;;;;12.48;7.40;;;3.50;92.00;;;;;;5093294;28;20101;-80
2020/12/26 02:24:14;;;;;;;17.35;8.60;;;3.50;92.00;;;;;;5075610;28;20056;-80
2020/12/26 02:26:39;;;;;;;14.20;7.75;;;3.50;92.00;;;;;;5058702;28;20081;-81
2020/12/26 02:29:06;;;;;;;14.15;7.88;;;3.50;91.90;;;;;;5059108;28;20442;-81
2020/12/26 02:31:32;;;;;;;13.52;8.27;;;3.50;92.00;;;;;;5075530;28;20032;-81
2020/12/26 02:33:58;;;;;;;21.48;8.32;;;3.50;91.90;;;;;;5075892;28;20027;-81
2020/12/26 02:36:24;;;;;;;16.27;8.82;;;3.60;92.00;;;;;;5059637;28;20373;-81
2020/12/26 02:38:49;;;;;;;21.40;9.88;;;3.60;92.00;;;;;;5075839;28;20024;-81
2020/12/26 02:41:15;;;;;;;16.55;10.25;;;3.60;92.10;;;;;;5059595;28;20391;-81
2020/12/26 02:43:41;;;;;;;23.05;11.98;;;3.60;92.20;;;;;;5076317;28;20535;-81
2020/12/26 02:46:07;;;;;;;24.77;10.93;;;3.60;92.20;;;;;;5060065;28;20114;-81
2020/12/26 02:48:33;;;;;;;20.35;11.80;;;3.60;92.40;;;;;;5095291;28;20027;-81
2020/12/26 02:50:59;;;;;;;22.65;11.98;;;3.60;92.70;;;;;;5095678;28;20020;-81
2020/12/26 02:53:25;;;;;;;25.67;12.48;;;3.60;92.50;;;;;;5095917;28;20158;-81
2020/12/26 02:55:51;;;;;;;20.90;12.88;;;3.60;92.60;;;;;;5077822;28;20028;-81
2020/12/26 02:58:18;;;;;;;18.40;12.95;;;3.60;92.60;;;;;;5076866;28;20031;-81
2020/12/26 03:00:43;;;;;;;17.90;12.13;;;3.60;92.70;;;;;;5094158;28;20024;-81
2020/12/26 03:03:09;;;;;;;27.15;13.57;;;3.60;92.80;;;;;;5076554;28;20500;-81
2020/12/26 03:05:35;;;;;;;24.45;14.45;;;3.60;92.90;;;;;;5076989;28;20024;-81
2020/12/26 03:08:00;;;;;;;22.08;13.68;;;3.60;92.90;;;;;;5059997;28;20028;-81
2020/12/26 03:10:26;;;;;;;24.27;14.38;;;3.60;93.00;;;;;;5061903;28;20473;-81
2020/12/26 03:12:52;;;;;;;28.98;15.30;;;3.60;93.00;;;;;;5095579;28;20077;-81
2020/12/26 03:15:18;;;;;;;25.95;15.40;;;3.60;93.30;;;;;;5079173;28;20070;-81
2020/12/26 03:17:44;;;;;;;26.38;15.55;;;3.60;93.20;;;;;;5063111;28;20103;-81
2020/12/26 03:20:09;;;;;;;24.50;15.45;;;3.60;93.20;;;;;;5063198;28;20055;-81
2020/12/26 03:22:35;;;;;;;25.55;15.20;;;3.60;93.30;;;;;;5080179;28;20127;-81
2020/12/26 03:25:01;;;;;;;22.23;12.77;;;3.60;93.40;;;;;;5079728;28;20054;-81
2020/12/26 03:27:27;;;;;;;16.13;12.10;;;3.60;93.40;;;;;;5062322;28;20107;-81
2020/12/26 03:29:53;;;;;;;27.70;13.52;;;3.60;93.40;;;;;;5079075;28;20029;-81
2020/12/26 03:32:20;;;;;;;20.02;12.43;;;3.60;93.40;;;;;;5096930;28;20423;-81
2020/12/26 03:34:46;;;;;;;19.05;11.43;;;3.70;93.40;;;;;;5098201;28;20039;-81
2020/12/26 03:37:12;;;;;;;18.83;12.32;;;3.60;93.40;;;;;;5098235;28;20028;-81
2020/12/26 03:39:37;;;;;;;18.08;10.70;;;3.70;93.40;;;;;;5079616;28;20108;-81
2020/12/26 03:42:11;;;;;;;18.30;10.85;;;3.70;93.40;;;;;;5097874;28;20040;-81
2020/12/26 03:44:37;;;;;;;17.77;10.77;;;3.80;93.40;;;;;;5078881;28;20027;-82
2020/12/26 03:47:05;;;;;;;17.20;10.68;;;3.80;93.40;;;;;;5077612;28;20603;-81
2020/12/26 03:49:30;;;;;;;22.10;10.90;;;3.80;93.40;;;;;;5076930;28;20365;-81
2020/12/26 03:51:56;;;;;;;16.92;10.90;;;3.80;93.30;;;;;;5076646;28;20027;-81
2020/12/26 03:54:21;;;;;;;16.60;10.55;;;3.90;93.30;;;;;;5076930;28;20029;-81
2020/12/26 03:56:47;;;;;;;18.08;10.82;;;3.80;93.30;;;;;;5076485;28;20154;-81
2020/12/26 03:59:13;;;;;;;21.15;12.00;;;3.90;93.30;;;;;;5076110;28;20027;-81
2020/12/26 04:01:39;;;;;;;19.70;11.23;;;3.90;93.20;;;;;;5074599;28;20055;-79
2020/12/26 04:04:04;;;;;;;17.15;11.70;;;3.90;93.20;;;;;;5057116;28;20388;-79
2020/12/26 04:06:30;;;;;;;15.68;10.63;;;3.90;93.20;;;;;;5060980;28;20073;-80
2020/12/26 04:08:56;;;;;;;18.45;12.05;;;3.90;93.10;;;;;;5077514;28;20139;-79
2020/12/26 04:11:21;;;;;;;20.70;12.27;;;3.90;93.10;;;;;;5060689;28;20036;-79
2020/12/26 04:13:47;;;;;;;19.85;11.10;;;3.90;93.10;;;;;;5077976;28;20032;-80
2020/12/26 04:16:13;;;;;;;19.30;10.90;;;3.80;93.00;;;;;;5077591;28;20107;-79
2020/12/26 04:18:39;;;;;;;19.00;12.18;;;3.90;93.10;;;;;;5077455;28;20107;-79
2020/12/26 04:21:06;;;;;;;16.90;11.82;;;3.80;93.00;;;;;;5077371;28;20028;-79
2020/12/26 04:23:32;;;;;;;15.95;10.52;;;3.80;93.00;;;;;;5077511;28;20032;-80
2020/12/26 04:25:58;;;;;;;18.23;11.02;;;3.80;93.30;;;;;;5060472;28;20032;-79
2020/12/26 04:28:24;;;;;;;16.80;11.40;;;3.80;93.00;;;;;;5060512;28;20438;-79
2020/12/26 04:30:50;;;;;;;19.45;11.55;;;3.80;93.00;;;;;;5074917;28;20145;-79
2020/12/26 04:33:16;;;;;;;21.13;11.30;;;3.80;92.90;;;;;;5094474;28;20119;-79
2020/12/26 04:35:41;;;;;;;17.85;11.38;;;3.80;92.90;;;;;;5077199;28;20031;-80
2020/12/26 04:38:07;;;;;;;20.95;12.27;;;3.80;92.90;;;;;;5060414;28;20070;-80
2020/12/26 04:40:33;;;;;;;22.25;11.98;;;3.80;92.80;;;;;;5087641;28;20024;-79
2020/12/26 04:42:59;;;;;;;15.32;10.50;;;3.70;92.80;;;;;;5075138;28;20028;-80
2020/12/26 04:45:25;;;;;;;17.83;11.88;;;3.70;92.80;;;;;;5095118;28;20113;-80
2020/12/26 04:47:58;;;;;;;16.05;10.40;;;3.70;92.80;;;;;;5077328;28;20078;-79
2020/12/26 04:50:27;;;;;;;21.60;12.88;;;3.70;92.80;;;;;;5077051;28;20488;-79
2020/12/26 04:53:03;;;;;;;17.27;11.82;;;3.60;92.80;;;;;;5076496;28;20058;-79
2020/12/26 04:55:31;;;;;;;18.83;10.90;;;3.60;92.80;;;;;;5076757;28;20481;-79
2020/12/26 04:58:07;;;;;;;16.05;10.65;;;3.60;92.80;;;;;;5076657;28;20031;-80
2020/12/26 05:00:34;;;;;;;17.42;11.18;;;3.50;92.80;;;;;;5060089;28;20032;-79
2020/12/26 05:03:10;;;;;;;19.45;10.70;;;3.50;92.80;;;;;;5059865;28;20046;-80
2020/12/26 05:05:41;;;;;;;15.48;10.25;;;3.40;92.90;;;;;;5059551;28;20082;-79
2020/12/26 05:08:11;;;;;;;16.42;10.38;;;3.40;92.90;;;;;;5094350;28;20035;-79
2020/12/26 05:10:38;;;;;;;17.60;10.20;;;3.40;92.90;;;;;;5059287;28;20435;-79
2020/12/26 05:13:09;;;;;;;18.58;11.45;;;3.40;92.90;;;;;;5059616;28;20032;-78
2020/12/26 05:15:35;;;;;;;16.00;9.40;;;3.30;92.90;;;;;;5075414;28;20028;-79
2020/12/26 05:18:01;;;;;;;18.52;9.88;;;3.30;92.90;;;;;;5059218;28;20032;-79
2020/12/26 05:20:28;;;;;;;21.73;12.07;;;3.30;92.90;;;;;;5076188;28;20048;-79
2020/12/26 05:23:25;;;;;;;14.98;9.63;;;3.30;92.90;;;;;;5075689;28;20027;-79
2020/12/26 05:25:51;;;;;;;14.63;10.00;;;3.20;92.90;;;;;;5066052;28;20044;-79
2020/12/26 05:28:22;;;;;;;17.48;12.23;;;3.20;92.80;;;;;;5079068;28;20031;-79
2020/12/26 05:30:51;;;;;;;17.27;11.20;;;3.20;92.80;;;;;;5094365;28;20383;-79
2020/12/26 05:33:18;;;;;;;23.52;15.30;;;3.20;92.90;;;;;;5051474;28;20020;-79
2020/12/26 05:35:45;;;;;;;18.92;12.43;;;3.10;92.80;;;;;;5059328;28;20082;-78
2020/12/26 05:38:14;;;;;;;16.80;11.25;;;3.10;92.90;;;;;;5059057;28;20463;-78
2020/12/26 05:40:51;;;;;;;18.10;11.82;;;3.10;92.90;;;;;;5072201;28;20108;-79
2020/12/26 05:43:19;;;;;;;16.88;12.40;;;3.10;92.90;;;;;;5075886;28;20119;-79
2020/12/26 05:45:46;;;;;;;19.55;11.93;;;3.10;92.90;;;;;;5075201;28;20020;-79
2020/12/26 05:48:16;;;;;;;23.52;13.45;;;3.10;92.90;;;;;;5075887;28;20120;-78
2020/12/26 05:50:42;;;;;;;24.52;13.02;;;3.10;92.80;;;;;;5059726;28;20024;-79
2020/12/26 05:53:09;;;;;;;20.60;12.77;;;3.10;92.90;;;;;;5075573;28;21773;-79
2020/12/26 05:55:39;;;;;;;23.25;13.07;;;3.10;92.90;;;;;;5055788;28;20032;-78
2020/12/26 05:58:05;;;;;;;21.33;13.63;;;3.10;92.90;;;;;;5068615;28;20032;-79
2020/12/26 06:00:38;;;;;;;19.83;12.82;;;3.00;92.90;;;;;;5075311;28;20375;-79
2020/12/26 06:03:22;;;;;;;22.52;13.52;;;3.00;92.90;;;;;;5093465;28;20024;-79
2020/12/26 06:05:49;;;;;;;19.70;12.40;;;3.00;93.00;;;;;;5082503;28;20017;-78
2020/12/26 06:08:18;;;;;;;20.35;12.63;;;3.00;93.00;;;;;;5075281;28;20477;-79
2020/12/26 06:10:49;;;;;;;23.15;12.18;;;3.00;93.00;;;;;;5075591;28;20039;-80
2020/12/26 06:13:20;;;;;;;23.45;13.85;;;2.90;92.90;;;;;;5075180;28;20373;-80
2020/12/26 06:15:50;;;;;;;26.60;14.98;;;2.90;93.00;;;;;;5093511;28;20028;-80
2020/12/26 06:18:20;;;;;;;22.75;12.52;;;2.90;93.00;;;;;;5074669;28;20102;-80
2020/12/26 06:20:46;;;;;;;18.70;10.95;;;2.90;93.00;;;;;;5075231;28;20035;-80
2020/12/26 06:23:17;;;;;;;20.77;11.10;;;2.80;93.00;;;;;;5056760;28;20050;-80
2020/12/26 06:25:44;;;;;;;17.77;11.25;;;2.80;93.00;;;;;;5093187;28;20023;-80
2020/12/26 06:28:30;;;;;;;18.27;10.98;;;2.90;93.00;;;;;;5092891;28;20057;-80
2020/12/26 06:31:00;;;;;;;18.15;11.18;;;2.80;93.00;;;;;;5073076;28;20503;-80
2020/12/26 06:33:28;;;;;;;16.63;10.68;;;2.80;93.00;;;;;;5074823;28;20036;-80
2020/12/26 06:35:56;;;;;;;19.60;11.55;;;2.80;93.00;;;;;;5075000;28;20035;-80
2020/12/26 06:38:28;;;;;;;13.93;9.20;;;2.80;93.00;;;;;;5075270;28;20051;-80
2020/12/26 06:41:05;;;;;;;21.02;11.15;;;2.80;93.10;;;;;;5092769;28;20027;-80
2020/12/26 06:43:40;;;;;;;17.27;9.90;;;2.80;93.10;;;;;;5072091;28;20491;-80
2020/12/26 06:46:28;;;;;;;27.35;13.65;;;2.80;93.10;;;;;;5092746;28;20032;-80
2020/12/26 06:48:55;;;;;;;18.40;11.48;;;2.70;93.10;;;;;;5074499;28;20031;-80
2020/12/26 06:51:21;;;;;;;17.35;10.27;;;2.70;93.10;;;;;;5074784;28;20028;-80
2020/12/26 06:53:47;;;;;;;19.00;10.95;;;2.70;93.10;;;;;;5074717;28;20589;-80
2020/12/26 06:56:35;;;;;;;14.15;9.60;;;2.70;93.40;;;;;;5074497;28;21508;-80
2020/12/26 06:59:11;;;;;;;16.37;10.30;;;2.70;93.20;;;;;;5074040;28;20214;-81
2020/12/26 07:01:43;;;;;;;19.95;11.68;;;2.70;93.20;;;;;;5073108;28;20336;-81
2020/12/26 07:04:09;;;;;;;18.48;11.05;;;2.70;93.50;;;;;;5072792;28;20379;-79
2020/12/26 07:06:44;;;;;;;17.35;9.40;;;2.70;93.10;;;;;;5092210;28;20022;-81
2020/12/26 07:09:12;;;;;;;16.83;9.45;;;2.60;93.20;;;;;;5087519;28;20072;-80
2020/12/26 07:11:52;;;;;;;17.75;11.02;;;2.60;93.20;;;;;;5074544;28;20424;-81
2020/12/26 07:14:40;;;;;;;18.80;11.10;;;2.60;93.20;;;;;;5092715;28;20032;-81
2020/12/26 07:17:26;;;;;;;18.95;10.27;;;2.60;93.10;;;;;;5091212;28;20048;-80
2020/12/26 07:19:53;;;;;;;17.27;9.57;;;2.60;93.50;;;;;;5091443;28;20113;-80
2020/12/26 07:22:29;;;;;;;17.50;9.95;;;2.60;93.20;;;;;;5091830;28;20043;-80
2020/12/26 07:25:06;;;;;;;16.33;8.52;;;2.60;93.20;;;;;;5074103;28;20512;-81
2020/12/26 07:27:39;;;;;;;19.20;9.13;;;2.60;93.20;;;;;;5092284;28;20063;-81
2020/12/26 07:30:20;;;;;;;18.08;10.43;;;2.50;93.20;;;;;;5074004;28;20487;-81
2020/12/26 07:32:47;;;;;;;15.25;9.30;;;2.50;93.20;;;;;;5070780;28;20039;-80
2020/12/26 07:35:13;;;;;;;18.10;9.75;;;2.50;93.20;;;;;;5073660;28;20031;-81
2020/12/26 07:38:00;;;;;;;12.63;8.35;;;2.50;93.20;;;;;;5074541;28;20480;-81
2020/12/26 07:40:28;;;;;;;17.90;9.55;;;2.50;93.20;;;;;;5094431;28;20052;-80
2020/12/26 07:42:55;;;;;;;16.77;10.63;;;2.50;93.20;;;;;;5096881;28;20020;-80
2020/12/26 07:45:23;;;;;;;13.55;9.20;;;2.50;93.20;;;;;;5078239;28;20024;-78
2020/12/26 07:47:52;;;;;;;14.07;9.65;;;2.60;93.20;;;;;;5096325;28;20016;-78
2020/12/26 07:50:20;;;;;;;15.20;10.00;;;2.60;93.20;;;;;;5078012;28;20054;-80
2020/12/26 07:52:46;;;;;;;15.68;10.25;;;2.60;93.20;;;;;;5096134;28;20040;-80
2020/12/26 07:55:12;;;;;;;16.20;9.43;;;2.70;93.20;;;;;;5078165;28;20039;-81
2020/12/26 07:57:38;;;;;;;19.75;9.80;;;2.70;93.20;;;;;;5096058;28;20380;-81
2020/12/26 08:00:05;;;;;;;15.43;9.10;;;2.70;93.10;;;;;;5095289;28;20032;-87
2020/12/26 08:02:31;;;;;;;13.65;9.30;;;2.80;93.10;;;;;;5096247;28;20097;-87
2020/12/26 08:04:56;;;;;;;22.13;9.57;;;2.80;93.10;;;;;;5099075;28;20102;-78
2020/12/26 08:07:24;;;;;;;15.55;9.52;;;2.80;93.10;;;;;;5095799;28;20501;-76
2020/12/26 08:09:54;;;;;;;22.63;10.65;;;2.90;93.00;;;;;;5044114;28;20048;-74
2020/12/26 08:12:21;;;;;;;14.70;9.48;;;2.90;93.00;;;;;;5077866;28;20414;-86
2020/12/26 08:15:00;;;;;;;15.57;9.27;;;3.00;93.00;;;;;;5078073;28;20024;-85
2020/12/26 08:17:27;;;;;;;16.40;10.48;;;3.00;93.00;;;;;;5078114;28;20055;-81
2020/12/26 08:20:00;;;;;;;17.88;8.80;;;3.00;93.00;;;;;;5077603;28;20040;-82
2020/12/26 08:22:26;;;;;;;19.25;9.75;;;3.00;93.00;;;;;;5077624;28;20028;-81
2020/12/26 08:25:07;;;;;;;16.13;8.93;;;3.00;92.90;;;;;;5077304;28;20024;-81
2020/12/26 08:27:33;;;;;;;28.48;8.80;;;3.10;92.90;;;;;;5095663;28;20028;-82
2020/12/26 08:30:03;;;;;;;17.73;9.20;;;3.10;92.80;;;;;;5057451;28;20033;-83
2020/12/26 08:32:33;;;;;;;18.15;9.95;;;3.10;92.80;;;;;;5088418;28;20020;-82
2020/12/26 08:35:02;;;;;;;15.70;9.63;;;3.10;92.70;;;;;;5095348;28;20518;-82
2020/12/26 08:37:31;;;;;;;16.92;9.57;;;3.20;92.70;;;;;;5059767;28;20116;-81
2020/12/26 08:40:02;;;;;;;23.65;10.93;;;3.20;92.70;;;;;;5075106;28;20479;-81
2020/12/26 08:42:29;;;;;;;18.50;9.45;;;3.20;92.70;;;;;;5076553;28;20027;-81
2020/12/26 08:44:55;;;;;;;17.17;9.35;;;3.20;92.60;;;;;;5059713;28;20024;-82
2020/12/26 08:47:31;;;;;;;18.00;9.85;;;3.30;92.60;;;;;;5095261;28;20035;-81
2020/12/26 08:49:58;;;;;;;23.00;10.80;;;3.30;92.60;;;;;;5094901;28;20020;-82
2020/12/26 08:52:27;;;;;;;21.48;10.13;;;3.30;92.50;;;;;;5060297;28;20035;-82
2020/12/26 08:55:04;;;;;;;19.83;9.45;;;3.30;92.80;;;;;;5094972;28;20098;-81
2020/12/26 08:57:30;;;;;;;19.70;9.85;;;3.30;92.80;;;;;;5060233;28;20416;-81
2020/12/26 09:00:13;;;;;;;20.15;10.65;;;3.40;92.50;;;;;;5077045;28;20039;-81
2020/12/26 09:02:54;;;;;;;21.30;9.40;;;3.40;92.30;;;;;;5106766;28;20094;-82
2020/12/26 09:05:24;;;;;;;17.20;9.35;;;3.40;92.30;;;;;;5058250;28;20024;-81
2020/12/26 09:08:07;;;;;;;16.83;9.13;;;3.50;92.30;;;;;;5060166;28;20031;-81
2020/12/26 09:10:34;;;;;;;18.75;9.05;;;3.60;92.30;;;;;;5085926;28;20138;-81
2020/12/26 09:13:09;;;;;;;19.48;9.10;;;3.60;92.10;;;;;;5091466;28;20031;-82
2020/12/26 09:15:50;;;;;;;17.98;9.10;;;3.60;92.00;;;;;;5073083;28;20061;-82
2020/12/26 09:18:20;;;;;;;21.83;9.23;;;3.60;92.00;;;;;;5071124;28;20393;-83
2020/12/26 09:20:47;;;;;;;18.80;9.02;;;3.70;91.90;;;;;;5071312;28;20642;-82
2020/12/26 09:23:13;;;;;;;16.20;9.15;;;3.70;91.80;;;;;;5091837;28;20028;-82
2020/12/26 09:25:39;;;;;;;15.07;8.65;;;3.70;91.80;;;;;;5055670;28;20502;-82
2020/12/26 09:28:04;;;;;;;18.20;8.38;;;3.80;91.70;;;;;;5058123;28;20020;-83
2020/12/26 09:30:30;;;;;;;17.25;7.93;;;3.80;91.60;;;;;;5075314;28;20023;-83
2020/12/26 09:32:56;;;;;;;13.90;7.55;;;3.80;91.60;;;;;;5059575;28;20127;-83
2020/12/26 09:35:22;;;;;;;18.63;8.30;;;3.80;91.50;;;;;;5110456;28;20381;-82
2020/12/26 09:37:52;;;;;;;21.85;8.65;;;3.80;91.40;;;;;;5060007;28;20020;-82
2020/12/26 09:40:18;;;;;;;18.08;8.43;;;3.80;91.30;;;;;;5059907;28;20451;-82
2020/12/26 09:42:50;;;;;;;16.70;8.30;;;3.80;91.20;;;;;;5059975;28;20027;-82
2020/12/26 09:45:17;;;;;;;12.45;7.32;;;3.90;91.20;;;;;;5052044;28;20032;-82
2020/12/26 09:47:42;;;;;;;14.77;7.43;;;3.90;91.20;;;;;;5076385;28;20043;-82
2020/12/26 09:50:08;;;;;;;14.52;6.95;;;4.00;91.30;;;;;;5075872;28;20031;-82
2020/12/26 09:52:34;;;;;;;14.25;6.53;;;4.00;91.20;;;;;;5093735;28;20779;-82
2020/12/26 09:54:59;;;;;;;14.77;6.90;;;4.00;91.20;;;;;;5059075;28;20032;-83
2020/12/26 09:57:25;;;;;;;14.35;6.47;;;4.10;91.10;;;;;;5060066;28;20358;-83
2020/12/26 09:59:50;;;;;;;13.48;6.35;;;4.10;91.10;;;;;;5078277;28;20069;-83
2020/12/26 10:02:16;;;;;;;10.93;6.05;;;4.10;91.10;;;;;;5074399;28;20023;-78
2020/12/26 10:04:41;;;;;;;10.60;5.95;;;4.20;91.10;;;;;;5058159;28;20066;-79
2020/12/26 10:07:07;;;;;;;13.32;5.93;;;4.20;91.00;;;;;;5058734;28;20106;-79
2020/12/26 10:09:32;;;;;;;13.15;5.72;;;4.30;90.90;;;;;;5042051;28;20044;-78
2020/12/26 10:11:58;;;;;;;11.50;5.93;;;4.30;91.00;;;;;;5093603;28;20746;-81
2020/12/26 10:14:24;;;;;;;10.35;5.20;;;4.30;90.90;;;;;;5076251;28;20066;-82
2020/12/26 10:16:49;;;;;;;10.02;5.03;;;4.40;90.90;;;;;;5094014;28;20020;-82
2020/12/26 10:19:15;;;;;;;11.32;5.38;;;4.40;90.70;;;;;;5059490;28;20040;-83
2020/12/26 10:21:40;;;;;;;10.48;5.18;;;4.40;90.60;;;;;;5059287;28;20024;-82
2020/12/26 10:24:06;;;;;;;11.95;5.60;;;4.50;90.90;;;;;;5076115;28;20420;-83
2020/12/26 10:30:06;;;;;;;13.45;5.60;;;4.50;90.40;;;;;;5055693;28;20021;-82
2020/12/26 10:32:38;;;;;;;11.98;5.47;;;4.40;90.30;;;;;;5104443;28;20026;-82
2020/12/26 10:35:03;;;;;;;12.30;5.38;;;4.40;90.30;;;;;;5109401;28;20044;-82
2020/12/26 10:37:29;;;;;;;11.55;4.90;;;4.50;90.20;;;;;;5042185;28;20043;-82
2020/12/26 10:40:07;;;;;;;8.50;4.82;;;4.50;90.10;;;;;;5058481;28;20023;-81
2020/12/26 10:42:33;;;;;;;10.43;5.38;;;4.60;90.20;;;;;;5075062;28;20088;-81
2020/12/26 10:44:58;;;;;;;9.65;5.10;;;4.60;90.10;;;;;;5093375;28;20035;-81
2020/12/26 10:47:24;;;;;;;7.70;4.63;;;4.60;90.30;;;;;;5075465;28;20114;-81
2020/12/26 10:49:50;;;;;;;11.13;4.47;;;4.70;90.00;;;;;;5075149;28;20040;-81
2020/12/26 10:52:15;;;;;;;10.35;4.95;;;4.70;89.70;;;;;;5058289;28;20111;-81
2020/12/26 10:54:41;;;;;;;9.63;4.28;;;4.70;89.40;;;;;;5074347;28;20024;-83
2020/12/26 10:57:07;;;;;;;10.15;4.43;;;4.80;89.50;;;;;;5072212;28;20496;-82
2020/12/26 10:59:32;;;;;;;9.70;4.47;;;4.80;89.20;;;;;;5060772;28;20053;-83
2020/12/26 11:01:58;;;;;;;8.80;4.57;;;4.80;89.00;;;;;;5057761;28;20047;-83
2020/12/26 11:04:24;;;;;;;9.52;4.10;;;4.90;89.10;;;;;;5041373;28;20059;-83
2020/12/26 11:06:49;;;;;;;10.88;4.00;;;4.90;88.70;;;;;;5079078;28;20035;-83
2020/12/26 11:09:16;;;;;;;9.27;4.00;;;5.00;88.70;;;;;;5074651;28;20147;-82
2020/12/26 11:11:49;;;;;;;9.25;4.93;;;5.10;88.30;;;;;;5074814;28;20117;-83
2020/12/26 11:14:15;;;;;;;8.02;3.95;;;5.20;88.20;;;;;;5081659;28;20028;-83
2020/12/26 11:16:45;;;;;;;7.50;4.07;;;5.20;87.60;;;;;;5085038;28;20032;-83
2020/12/26 11:19:11;;;;;;;6.35;3.65;;;5.20;87.20;;;;;;5097048;28;20028;-82
2020/12/26 11:21:36;;;;;;;6.38;3.33;;;5.30;87.30;;;;;;5062311;28;20024;-82
2020/12/26 11:24:02;;;;;;;7.68;3.72;;;5.30;87.20;;;;;;5078949;28;20028;-82
2020/12/26 11:26:28;;;;;;;5.60;3.05;;;5.40;87.40;;;;;;5078651;28;20106;-82
2020/12/26 11:28:53;;;;;;;9.18;4.00;;;5.40;87.20;;;;;;5078599;28;20161;-82
2020/12/26 11:31:25;;;;;;;9.25;3.92;;;5.40;86.90;;;;;;5078918;28;20376;-84
2020/12/26 11:34:03;;;;;;;8.52;3.38;;;5.40;86.70;;;;;;5097277;28;20106;-83
2020/12/26 11:36:30;;;;;;;12.43;3.75;;;5.40;86.90;;;;;;5079712;28;20032;-82
2020/12/26 11:38:56;;;;;;;11.43;3.50;;;5.50;86.70;;;;;;5062345;28;20032;-81
2020/12/26 11:41:34;;;;;;;6.47;3.78;;;5.60;86.50;;;;;;5096930;28;20029;-81
2020/12/26 11:44:00;;;;;;;7.68;3.53;;;5.70;86.30;;;;;;5096901;28;20025;-81
2020/12/26 11:46:26;;;;;;;6.68;3.58;;;5.70;86.10;;;;;;5078472;28;20055;-80
2020/12/26 11:48:52;;;;;;;11.90;3.55;;;5.70;85.90;;;;;;5109197;28;20385;-81
2020/12/26 11:51:18;;;;;;;7.80;3.40;;;5.70;85.90;;;;;;5078634;28;20020;-81
2020/12/26 11:53:43;;;;;;;7.97;3.40;;;5.70;86.00;;;;;;5061538;28;20431;-81
2020/12/26 11:56:11;;;;;;;5.60;2.90;;;5.80;85.90;;;;;;5096514;28;20119;-81
2020/12/26 11:58:37;;;;;;;7.35;3.60;;;5.70;85.90;;;;;;5096959;28;20115;-82
2020/12/26 12:01:04;;;;;;;5.80;3.33;;;5.80;85.80;;;;;;5077845;28;20032;-81
2020/12/26 12:03:30;;;;;;;10.40;3.63;;;5.70;85.90;;;;;;5077998;28;20055;-83
2020/12/26 12:05:56;;;;;;;7.30;3.72;;;5.70;86.00;;;;;;5096624;28;20048;-83
2020/12/26 12:08:22;;;;;;;6.07;3.45;;;5.70;86.00;;;;;;5078559;28;20028;-83
2020/12/26 12:10:48;;;;;;;8.18;3.40;;;5.70;85.90;;;;;;5075080;28;20053;-83
2020/12/26 12:13:14;;;;;;;9.38;3.78;;;5.70;86.10;;;;;;5076068;28;20032;-82
2020/12/26 12:15:40;;;;;;;7.15;3.30;;;5.70;86.20;;;;;;5074781;28;20031;-81
2020/12/26 12:18:06;;;;;;;7.65;3.65;;;5.70;86.40;;;;;;5058372;28;20125;-82
2020/12/26 12:20:32;;;;;;;6.32;2.92;;;5.70;87.20;;;;;;5075074;28;20062;-81
2020/12/26 12:22:58;;;;;;;9.07;3.45;;;5.60;86.60;;;;;;5075950;28;20039;-82
2020/12/26 12:25:25;;;;;;;10.23;3.63;;;5.70;86.50;;;;;;5074208;28;20476;-79
2020/12/26 12:27:52;;;;;;;9.63;4.03;;;5.70;86.60;;;;;;5075906;28;20488;-79
2020/12/26 12:30:18;;;;;;;8.00;3.80;;;5.70;86.50;;;;;;5075639;28;20070;-79
2020/12/26 12:32:43;;;;;;;7.75;3.85;;;5.70;86.50;;;;;;5075700;28;20063;-79
2020/12/26 12:35:10;;;;;;;9.73;3.72;;;5.70;86.50;;;;;;5054484;28;20465;-79
2020/12/26 12:37:36;;;;;;;7.88;3.47;;;5.80;86.60;;;;;;5055763;28;20037;-79
2020/12/26 12:40:06;;;;;;;7.05;2.97;;;5.80;86.70;;;;;;5057067;28;20036;-79
2020/12/26 12:42:31;;;;;;;7.45;3.40;;;5.80;86.60;;;;;;5074309;28;20016;-79
2020/12/26 12:44:57;;;;;;;5.88;3.20;;;5.80;86.50;;;;;;5074232;28;20028;-79
2020/12/26 12:47:26;;;;;;;9.18;3.45;;;5.80;86.50;;;;;;5074707;28;20031;-79
2020/12/26 12:49:52;;;;;;;;;;;5.80;86.40;;;;;;5074925;28;20090;-79
2020/12/26 12:52:18;;;;;;;8.70;3.50;;;5.80;86.20;;;;;;5075120;28;19916;-79